AirNav   Everest Fuels
 
 799 users online  

06WI Lazy River Airport
Wausaukee, Wisconsin, USA

GOING TO WAUSAUKEE?


FAA INFORMATION EFFECTIVE 26 JANUARY 2023

Location

FAA Identifier: 06WI
Lat/Long: 45-24-09.9400N 087-51-26.3400W
45-24.165667N 087-51.439000W
45.4027611,-87.8573167
(estimated)
Elevation: 720 ft. / 219 m (estimated)
From city: 5 miles N of WAUSAUKEE, WI
Time zone: UTC -6 (UTC -5 during Daylight Saving Time)
Zip code: 54177

Airport Operations

Airport use: Private use. Permission required prior to landing
Activation date: 01/2011
Control tower: no
ARTCC: MINNEAPOLIS CENTER
FSS: GREEN BAY FLIGHT SERVICE STATION
Attendance: UINATNDD
Segmented circle: no

Airport Communications

WX AWOS-3PT at MNM (19 nm SE): 121.45 (906-863-8801)

Nearby radio navigation aids

VOR radial/distance  VOR name  Freq  Var
IMTr159/27.0IRON MOUNTAIN VOR/DME111.2002W
ESCr239/37.5ESCANABA VOR/DME110.8000E

Airport Services

Runway Information

Runway 6/24

Dimensions: 2200 x 50 ft. / 671 x 15 m
Surface: turf
RUNWAY 6  RUNWAY 24
Traffic pattern: leftleft

Runway 18/36

Dimensions: 1500 x 50 ft. / 457 x 15 m
Surface: turf
RUNWAY 18  RUNWAY 36
Traffic pattern: leftleft

Airport Ownership and Management from official FAA records

Ownership: Privately-owned
Owner: JAMES M. CHRISTENSEN
PO BOX 11206
GREEN BAY, WI 54307
Phone 920-621-7171
Manager: JAMES M. CHRISTENSEN
PO BOX 11206
GREEN BAY, WI 54307
Phone 920-621-7171

Additional Remarks

FOR CD CTC MINNEAPOLIS ARTCC AT 651-463-5588.

Instrument Procedures

There are no published instrument procedures at 06WI.

Some nearby airports with instrument procedures:

KMNM - Menominee Regional Airport (19 nm SE)
KIMT - Ford Airport (27 nm NW)
KOCQ - Oconto/J Douglas Bake Municipal Airport (32 nm S)
3D2 - Ephraim/Gibraltar Airport (32 nm SE)
KESC - Delta County Airport (37 nm NE)
 
Loc | Ops | Rwys | IFR | FBO | Links
Com | Nav | Svcs | Stats | Notes
Aerial photo
No photo
 
Sectional chart

 
Airport distance calculator
Flying to Lazy River Airport? Find the distance to fly.

From to 06WI

Sunrise and sunset
Times for 27-Jan-2023
 Local
(UTC-6)
 Zulu
(UTC)
Morning civil twilight06:4712:47
Sunrise07:1913:19
Sunset16:5022:50
Evening civil twilight17:2223:22

Current date and time
Zulu (UTC)  27-Jan-2023 12:09:50
Local (UTC-6)  27-Jan-2023 06:09:50
 
METAR
KMNM 
20nm SE 
271157Z AUTO 9SM -SN OVC011 M09/M11 A2970 RMK AO2 SLP077 6//// 7//// T10941111 11067 21100 58022 FZRANO PNO $
KIMT 
27nm NW 
271154Z AUTO 17011KT 8SM OVC010 M11/M13 A2957 RMK AO2 SLP038 T11111133 11100 21200 56036
KOCQ 
32nm S 
271155Z AUTO 17008KT 10SM SCT013 SCT120 M10/M11 A2970 RMK AO1 T10991109 11060 21105
K3D2 
32nm SE 
271155Z AUTO 21007KT 190V250 10SM CLR M09/M12 A2970 RMK AO2 T10891119 11061 21089
KSUE 
38nm SE 
271156Z AUTO 18010KT 10SM CLR M10/M13 A2972 RMK AO2 SLP072 T11001128 11050 21106 58030 FZRANO
K2P2 
39nm E 
271155Z AUTO 21011G16KT 10SM CLR M07/M10 A2970 RMK AO2 T10681101 11053 21071
TAF
NOTAMs
Click for the latest NOTAMs
NOTAMs are issued by the DoD/FAA and will open in a separate window not controlled by AirNav.

 

 
 

Would you like to see your business listed on this page?

 If your business provides an interesting product or service to pilots, flight crews, aircraft, or users of the Lazy River Airport, you should consider listing it here.  To start the listing process, click on the button below
 
Add a business
 

Other Pages about Lazy River Airport

Update a link
 
Copyright © AirNav, LLC. All rights reserved. Privacy Policy  Contact